sensor_id;sensor_type;location;lat;lon;timestamp;P1;durP1;ratioP1;P2;durP2;ratioP2
31764;SDS011;18338;53.240;8.798;2022-08-20T00:01:07;2.80;;;2.35;;
31764;SDS011;18338;53.240;8.798;2022-08-20T00:03:38;2.67;;;2.47;;
31764;SDS011;18338;53.240;8.798;2022-08-20T00:06:11;3.10;;;2.38;;
31764;SDS011;18338;53.240;8.798;2022-08-20T00:08:40;3.50;;;3.20;;
31764;SDS011;18338;53.240;8.798;2022-08-20T00:11:09;2.67;;;2.47;;
31764;SDS011;18338;53.240;8.798;2022-08-20T00:13:40;3.40;;;3.10;;
31764;SDS011;18338;53.240;8.798;2022-08-20T00:16:09;4.63;;;4.22;;
31764;SDS011;18338;53.240;8.798;2022-08-20T00:18:36;4.72;;;4.32;;
31764;SDS011;18338;53.240;8.798;2022-08-20T00:21:05;5.60;;;5.10;;
31764;SDS011;18338;53.240;8.798;2022-08-20T00:23:40;6.53;;;5.82;;
31764;SDS011;18338;53.240;8.798;2022-08-20T00:26:09;8.18;;;7.32;;
31764;SDS011;18338;53.240;8.798;2022-08-20T00:28:36;8.40;;;7.57;;
31764;SDS011;18338;53.240;8.798;2022-08-20T00:31:04;10.02;;;9.07;;
31764;SDS011;18338;53.240;8.798;2022-08-20T00:33:32;10.35;;;9.35;;
31764;SDS011;18338;53.240;8.798;2022-08-20T00:35:59;12.10;;;9.90;;
31764;SDS011;18338;53.240;8.798;2022-08-20T00:38:37;13.10;;;11.50;;
31764;SDS011;18338;53.240;8.798;2022-08-20T00:41:06;13.88;;;12.48;;
31764;SDS011;18338;53.240;8.798;2022-08-20T00:43:36;14.07;;;12.68;;
31764;SDS011;18338;53.240;8.798;2022-08-20T00:46:13;15.40;;;13.70;;
31764;SDS011;18338;53.240;8.798;2022-08-20T00:48:44;15.27;;;13.75;;
31764;SDS011;18338;53.240;8.798;2022-08-20T00:54:02;15.27;;;13.77;;
31764;SDS011;18338;53.240;8.798;2022-08-20T00:56:31;15.23;;;13.63;;
31764;SDS011;18338;53.240;8.798;2022-08-20T00:58:59;15.68;;;14.18;;
31764;SDS011;18338;53.240;8.798;2022-08-20T01:01:27;14.85;;;13.38;;
31764;SDS011;18338;53.240;8.798;2022-08-20T01:03:54;12.88;;;11.68;;
31764;SDS011;18338;53.240;8.798;2022-08-20T01:06:22;12.68;;;11.32;;
31764;SDS011;18338;53.240;8.798;2022-08-20T01:08:50;12.23;;;11.07;;
31764;SDS011;18338;53.240;8.798;2022-08-20T01:11:17;10.95;;;9.55;;
31764;SDS011;18338;53.240;8.798;2022-08-20T01:13:47;11.93;;;9.65;;
31764;SDS011;18338;53.240;8.798;2022-08-20T01:16:19;9.77;;;8.88;;
31764;SDS011;18338;53.240;8.798;2022-08-20T01:18:53;9.93;;;8.88;;
31764;SDS011;18338;53.240;8.798;2022-08-20T01:21:22;10.32;;;9.23;;
31764;SDS011;18338;53.240;8.798;2022-08-20T01:26:39;10.13;;;9.13;;
31764;SDS011;18338;53.240;8.798;2022-08-20T01:29:19;9.68;;;8.68;;
31764;SDS011;18338;53.240;8.798;2022-08-20T01:31:50;8.55;;;6.65;;
31764;SDS011;18338;53.240;8.798;2022-08-20T01:34:18;9.45;;;6.65;;
31764;SDS011;18338;53.240;8.798;2022-08-20T01:36:48;6.80;;;6.20;;
31764;SDS011;18338;53.240;8.798;2022-08-20T01:39:21;6.95;;;6.25;;
31764;SDS011;18338;53.240;8.798;2022-08-20T01:41:51;6.35;;;5.75;;
31764;SDS011;18338;53.240;8.798;2022-08-20T01:44:39;6.30;;;5.70;;
31764;SDS011;18338;53.240;8.798;2022-08-20T01:49:42;6.03;;;5.43;;
31764;SDS011;18338;53.240;8.798;2022-08-20T01:52:14;6.18;;;5.57;;
31764;SDS011;18338;53.240;8.798;2022-08-20T01:55:03;5.90;;;5.38;;
31764;SDS011;18338;53.240;8.798;2022-08-20T01:57:32;5.70;;;5.20;;
31764;SDS011;18338;53.240;8.798;2022-08-20T02:00:00;5.82;;;5.00;;
31764;SDS011;18338;53.240;8.798;2022-08-20T02:02:45;7.35;;;5.60;;
31764;SDS011;18338;53.240;8.798;2022-08-20T02:05:12;5.85;;;5.15;;
31764;SDS011;18338;53.240;8.798;2022-08-20T02:07:38;5.18;;;4.78;;
31764;SDS011;18338;53.240;8.798;2022-08-20T02:10:07;6.35;;;5.53;;
31764;SDS011;18338;53.240;8.798;2022-08-20T02:12:35;6.03;;;5.38;;
31764;SDS011;18338;53.240;8.798;2022-08-20T02:15:02;5.20;;;4.70;;
31764;SDS011;18338;53.240;8.798;2022-08-20T02:17:30;5.55;;;5.05;;
31764;SDS011;18338;53.240;8.798;2022-08-20T02:19:58;5.07;;;4.68;;
31764;SDS011;18338;53.240;8.798;2022-08-20T02:22:36;5.43;;;4.93;;
31764;SDS011;18338;53.240;8.798;2022-08-20T02:25:16;5.55;;;5.00;;
31764;SDS011;18338;53.240;8.798;2022-08-20T02:27:46;5.60;;;5.07;;
31764;SDS011;18338;53.240;8.798;2022-08-20T02:30:18;6.13;;;5.15;;
31764;SDS011;18338;53.240;8.798;2022-08-20T02:32:54;5.68;;;5.03;;
31764;SDS011;18338;53.240;8.798;2022-08-20T02:35:23;6.07;;;5.57;;
31764;SDS011;18338;53.240;8.798;2022-08-20T02:37:50;5.82;;;5.32;;
31764;SDS011;18338;53.240;8.798;2022-08-20T02:40:18;5.85;;;5.35;;
31764;SDS011;18338;53.240;8.798;2022-08-20T02:42:56;5.70;;;5.10;;
31764;SDS011;18338;53.240;8.798;2022-08-20T02:45:27;6.25;;;5.65;;
31764;SDS011;18338;53.240;8.798;2022-08-20T02:47:54;5.93;;;5.45;;
31764;SDS011;18338;53.240;8.798;2022-08-20T02:50:23;6.30;;;5.70;;
31764;SDS011;18338;53.240;8.798;2022-08-20T02:52:51;6.90;;;6.30;;
31764;SDS011;18338;53.240;8.798;2022-08-20T02:55:18;7.90;;;7.18;;
31764;SDS011;18338;53.240;8.798;2022-08-20T02:57:54;7.95;;;7.25;;
31764;SDS011;18338;53.240;8.798;2022-08-20T03:00:24;9.05;;;7.70;;
31764;SDS011;18338;53.240;8.798;2022-08-20T03:02:51;8.35;;;7.55;;
31764;SDS011;18338;53.240;8.798;2022-08-20T03:05:18;9.23;;;8.25;;
31764;SDS011;18338;53.240;8.798;2022-08-20T03:07:47;9.68;;;8.20;;
31764;SDS011;18338;53.240;8.798;2022-08-20T03:10:22;10.23;;;9.25;;
31764;SDS011;18338;53.240;8.798;2022-08-20T03:12:57;9.75;;;8.77;;
31764;SDS011;18338;53.240;8.798;2022-08-20T03:15:26;9.93;;;8.90;;
31764;SDS011;18338;53.240;8.798;2022-08-20T03:17:57;9.95;;;8.95;;
31764;SDS011;18338;53.240;8.798;2022-08-20T03:20:24;10.93;;;9.57;;
31764;SDS011;18338;53.240;8.798;2022-08-20T03:22:52;11.68;;;10.55;;
31764;SDS011;18338;53.240;8.798;2022-08-20T03:25:19;12.95;;;10.48;;
31764;SDS011;18338;53.240;8.798;2022-08-20T03:27:46;12.35;;;11.15;;
31764;SDS011;18338;53.240;8.798;2022-08-20T03:30:20;12.07;;;10.90;;
31764;SDS011;18338;53.240;8.798;2022-08-20T03:32:47;12.65;;;11.05;;
31764;SDS011;18338;53.240;8.798;2022-08-20T03:35:16;13.00;;;11.70;;
31764;SDS011;18338;53.240;8.798;2022-08-20T03:37:44;14.20;;;11.70;;
31764;SDS011;18338;53.240;8.798;2022-08-20T03:40:15;13.80;;;12.40;;
31764;SDS011;18338;53.240;8.798;2022-08-20T03:42:45;15.82;;;12.88;;
31764;SDS011;18338;53.240;8.798;2022-08-20T03:45:12;14.45;;;12.73;;
31764;SDS011;18338;53.240;8.798;2022-08-20T03:47:45;15.25;;;12.90;;
31764;SDS011;18338;53.240;8.798;2022-08-20T03:50:12;14.25;;;12.75;;
31764;SDS011;18338;53.240;8.798;2022-08-20T03:52:48;16.55;;;13.65;;
31764;SDS011;18338;53.240;8.798;2022-08-20T03:55:19;15.85;;;13.18;;
31764;SDS011;18338;53.240;8.798;2022-08-20T03:57:48;16.17;;;14.43;;
31764;SDS011;18338;53.240;8.798;2022-08-20T04:00:24;16.83;;;14.48;;
31764;SDS011;18338;53.240;8.798;2022-08-20T04:02:54;16.45;;;14.35;;
31764;SDS011;18338;53.240;8.798;2022-08-20T04:05:23;17.02;;;14.75;;
31764;SDS011;18338;53.240;8.798;2022-08-20T04:07:54;17.25;;;14.27;;
31764;SDS011;18338;53.240;8.798;2022-08-20T04:10:28;16.95;;;14.57;;
31764;SDS011;18338;53.240;8.798;2022-08-20T04:12:54;19.77;;;16.40;;
31764;SDS011;18338;53.240;8.798;2022-08-20T04:15:22;20.23;;;17.10;;
31764;SDS011;18338;53.240;8.798;2022-08-20T04:17:49;20.23;;;15.90;;
31764;SDS011;18338;53.240;8.798;2022-08-20T04:20:22;20.55;;;17.55;;
31764;SDS011;18338;53.240;8.798;2022-08-20T04:22:51;20.48;;;16.65;;
31764;SDS011;18338;53.240;8.798;2022-08-20T04:25:24;20.05;;;16.77;;
31764;SDS011;18338;53.240;8.798;2022-08-20T04:27:54;21.52;;;17.85;;
31764;SDS011;18338;53.240;8.798;2022-08-20T04:30:24;22.35;;;17.30;;
31764;SDS011;18338;53.240;8.798;2022-08-20T04:32:51;21.08;;;16.63;;
31764;SDS011;18338;53.240;8.798;2022-08-20T04:35:19;21.73;;;17.30;;
31764;SDS011;18338;53.240;8.798;2022-08-20T04:37:46;19.92;;;15.95;;
31764;SDS011;18338;53.240;8.798;2022-08-20T04:40:15;19.80;;;16.80;;
31764;SDS011;18338;53.240;8.798;2022-08-20T04:43:02;20.80;;;17.08;;
31764;SDS011;18338;53.240;8.798;2022-08-20T04:45:30;23.00;;;18.25;;
31764;SDS011;18338;53.240;8.798;2022-08-20T04:48:00;22.50;;;17.30;;
31764;SDS011;18338;53.240;8.798;2022-08-20T04:50:32;22.27;;;17.73;;
31764;SDS011;18338;53.240;8.798;2022-08-20T04:53:04;23.95;;;18.00;;
31764;SDS011;18338;53.240;8.798;2022-08-20T04:55:33;20.42;;;17.70;;
31764;SDS011;18338;53.240;8.798;2022-08-20T04:58:04;21.42;;;16.80;;
31764;SDS011;18338;53.240;8.798;2022-08-20T05:00:32;21.70;;;18.17;;
31764;SDS011;18338;53.240;8.798;2022-08-20T05:02:59;22.15;;;17.02;;
31764;SDS011;18338;53.240;8.798;2022-08-20T05:05:26;21.17;;;17.23;;
31764;SDS011;18338;53.240;8.798;2022-08-20T05:07:53;24.17;;;18.52;;
31764;SDS011;18338;53.240;8.798;2022-08-20T05:10:21;23.50;;;18.92;;
31764;SDS011;18338;53.240;8.798;2022-08-20T05:12:49;24.30;;;19.02;;
31764;SDS011;18338;53.240;8.798;2022-08-20T05:15:22;25.42;;;18.45;;
31764;SDS011;18338;53.240;8.798;2022-08-20T05:17:53;23.63;;;18.33;;
31764;SDS011;18338;53.240;8.798;2022-08-20T05:20:22;22.25;;;18.98;;
31764;SDS011;18338;53.240;8.798;2022-08-20T05:22:49;21.13;;;18.00;;
31764;SDS011;18338;53.240;8.798;2022-08-20T05:25:17;23.80;;;18.98;;
31764;SDS011;18338;53.240;8.798;2022-08-20T05:27:44;22.17;;;18.27;;
31764;SDS011;18338;53.240;8.798;2022-08-20T05:30:27;21.83;;;18.90;;
31764;SDS011;18338;53.240;8.798;2022-08-20T05:34:22;21.42;;;18.60;;
31764;SDS011;18338;53.240;8.798;2022-08-20T05:36:59;20.95;;;18.35;;
31764;SDS011;18338;53.240;8.798;2022-08-20T05:40:52;24.83;;;19.67;;
31764;SDS011;18338;53.240;8.798;2022-08-20T05:43:20;23.73;;;19.95;;
31764;SDS011;18338;53.240;8.798;2022-08-20T05:45:47;22.33;;;19.67;;
31764;SDS011;18338;53.240;8.798;2022-08-20T05:48:22;23.42;;;19.13;;
31764;SDS011;18338;53.240;8.798;2022-08-20T05:50:50;22.52;;;19.23;;
31764;SDS011;18338;53.240;8.798;2022-08-20T05:53:20;21.65;;;19.27;;
31764;SDS011;18338;53.240;8.798;2022-08-20T05:55:48;23.13;;;20.00;;
31764;SDS011;18338;53.240;8.798;2022-08-20T05:58:17;23.27;;;20.00;;
31764;SDS011;18338;53.240;8.798;2022-08-20T06:00:47;21.77;;;19.48;;
31764;SDS011;18338;53.240;8.798;2022-08-20T06:03:16;22.85;;;19.15;;
31764;SDS011;18338;53.240;8.798;2022-08-20T06:06:02;21.85;;;17.88;;
31764;SDS011;18338;53.240;8.798;2022-08-20T06:08:43;20.80;;;17.60;;
31764;SDS011;18338;53.240;8.798;2022-08-20T06:11:09;21.52;;;17.70;;
31764;SDS011;18338;53.240;8.798;2022-08-20T06:13:36;18.65;;;16.65;;
31764;SDS011;18338;53.240;8.798;2022-08-20T06:16:03;21.45;;;17.15;;
31764;SDS011;18338;53.240;8.798;2022-08-20T06:18:54;18.13;;;16.20;;
31764;SDS011;18338;53.240;8.798;2022-08-20T06:21:29;14.88;;;13.52;;
31764;SDS011;18338;53.240;8.798;2022-08-20T06:24:15;16.05;;;14.20;;
31764;SDS011;18338;53.240;8.798;2022-08-20T06:26:42;13.50;;;12.20;;
31764;SDS011;18338;53.240;8.798;2022-08-20T06:29:09;13.48;;;12.18;;
31764;SDS011;18338;53.240;8.798;2022-08-20T06:31:41;13.13;;;12.02;;
31764;SDS011;18338;53.240;8.798;2022-08-20T06:37:56;10.30;;;9.30;;
31764;SDS011;18338;53.240;8.798;2022-08-20T06:40:26;10.32;;;9.30;;
31764;SDS011;18338;53.240;8.798;2022-08-20T06:42:53;9.13;;;8.40;;
31764;SDS011;18338;53.240;8.798;2022-08-20T06:45:25;9.25;;;8.38;;
31764;SDS011;18338;53.240;8.798;2022-08-20T06:47:55;8.65;;;7.75;;
31764;SDS011;18338;53.240;8.798;2022-08-20T06:50:26;7.50;;;6.80;;
31764;SDS011;18338;53.240;8.798;2022-08-20T06:52:57;7.80;;;7.00;;
31764;SDS011;18338;53.240;8.798;2022-08-20T06:55:25;7.00;;;6.15;;
31764;SDS011;18338;53.240;8.798;2022-08-20T06:57:59;6.45;;;5.85;;
31764;SDS011;18338;53.240;8.798;2022-08-20T07:00:31;6.95;;;5.85;;
31764;SDS011;18338;53.240;8.798;2022-08-20T07:03:00;6.55;;;5.45;;
31764;SDS011;18338;53.240;8.798;2022-08-20T07:05:29;6.22;;;5.63;;
31764;SDS011;18338;53.240;8.798;2022-08-20T07:07:57;6.88;;;5.40;;
31764;SDS011;18338;53.240;8.798;2022-08-20T07:10:26;6.45;;;5.53;;
31764;SDS011;18338;53.240;8.798;2022-08-20T07:12:54;8.88;;;5.80;;
31764;SDS011;18338;53.240;8.798;2022-08-20T07:15:25;6.72;;;5.15;;
31764;SDS011;18338;53.240;8.798;2022-08-20T07:17:53;6.75;;;4.88;;
31764;SDS011;18338;53.240;8.798;2022-08-20T07:20:26;6.93;;;6.20;;
31764;SDS011;18338;53.240;8.798;2022-08-20T07:22:55;6.85;;;6.15;;
31764;SDS011;18338;53.240;8.798;2022-08-20T07:25:22;8.32;;;5.30;;
31764;SDS011;18338;53.240;8.798;2022-08-20T07:27:50;9.30;;;4.40;;
31764;SDS011;18338;53.240;8.798;2022-08-20T07:30:21;6.28;;;3.90;;
31764;SDS011;18338;53.240;8.798;2022-08-20T07:33:23;7.10;;;3.55;;
31764;SDS011;18338;53.240;8.798;2022-08-20T07:35:53;7.93;;;3.15;;
31764;SDS011;18338;53.240;8.798;2022-08-20T07:38:25;7.30;;;2.80;;
31764;SDS011;18338;53.240;8.798;2022-08-20T07:40:59;7.28;;;2.65;;
31764;SDS011;18338;53.240;8.798;2022-08-20T07:43:27;6.18;;;2.80;;
31764;SDS011;18338;53.240;8.798;2022-08-20T07:45:55;7.10;;;2.20;;
31764;SDS011;18338;53.240;8.798;2022-08-20T07:48:24;10.27;;;2.88;;
31764;SDS011;18338;53.240;8.798;2022-08-20T07:50:57;4.38;;;2.10;;
31764;SDS011;18338;53.240;8.798;2022-08-20T07:53:30;8.05;;;2.40;;
31764;SDS011;18338;53.240;8.798;2022-08-20T07:56:02;7.38;;;2.42;;
31764;SDS011;18338;53.240;8.798;2022-08-20T07:58:32;6.88;;;2.50;;
31764;SDS011;18338;53.240;8.798;2022-08-20T08:01:01;4.85;;;2.38;;
31764;SDS011;18338;53.240;8.798;2022-08-20T08:03:28;4.95;;;1.90;;
31764;SDS011;18338;53.240;8.798;2022-08-20T08:06:14;5.57;;;2.35;;
31764;SDS011;18338;53.240;8.798;2022-08-20T08:08:54;4.88;;;2.28;;
31764;SDS011;18338;53.240;8.798;2022-08-20T08:11:22;7.47;;;2.42;;
31764;SDS011;18338;53.240;8.798;2022-08-20T08:13:48;5.15;;;2.08;;
31764;SDS011;18338;53.240;8.798;2022-08-20T08:16:15;6.07;;;1.83;;
31764;SDS011;18338;53.240;8.798;2022-08-20T08:18:44;5.97;;;1.73;;
31764;SDS011;18338;53.240;8.798;2022-08-20T08:21:15;5.32;;;1.95;;
31764;SDS011;18338;53.240;8.798;2022-08-20T08:23:43;5.90;;;2.05;;
31764;SDS011;18338;53.240;8.798;2022-08-20T08:26:10;5.03;;;1.92;;
31764;SDS011;18338;53.240;8.798;2022-08-20T08:28:44;7.85;;;2.15;;
31764;SDS011;18338;53.240;8.798;2022-08-20T08:31:11;6.30;;;1.90;;
31764;SDS011;18338;53.240;8.798;2022-08-20T08:33:38;4.72;;;2.08;;
31764;SDS011;18338;53.240;8.798;2022-08-20T08:36:07;6.75;;;2.10;;
31764;SDS011;18338;53.240;8.798;2022-08-20T08:38:40;9.55;;;2.65;;
31764;SDS011;18338;53.240;8.798;2022-08-20T08:41:16;6.20;;;2.33;;
31764;SDS011;18338;53.240;8.798;2022-08-20T08:43:51;6.32;;;2.00;;
31764;SDS011;18338;53.240;8.798;2022-08-20T08:46:23;3.47;;;1.65;;
31764;SDS011;18338;53.240;8.798;2022-08-20T08:48:53;6.10;;;2.08;;
31764;SDS011;18338;53.240;8.798;2022-08-20T08:51:29;8.02;;;1.77;;
31764;SDS011;18338;53.240;8.798;2022-08-20T08:54:02;7.00;;;1.70;;
31764;SDS011;18338;53.240;8.798;2022-08-20T08:56:32;4.13;;;1.77;;
31764;SDS011;18338;53.240;8.798;2022-08-20T08:59:01;5.90;;;1.90;;
31764;SDS011;18338;53.240;8.798;2022-08-20T09:01:31;4.80;;;1.55;;
31764;SDS011;18338;53.240;8.798;2022-08-20T09:04:20;4.18;;;2.03;;
31764;SDS011;18338;53.240;8.798;2022-08-20T09:06:49;4.55;;;1.58;;
31764;SDS011;18338;53.240;8.798;2022-08-20T09:09:24;4.25;;;1.30;;
31764;SDS011;18338;53.240;8.798;2022-08-20T09:11:56;3.45;;;1.15;;
31764;SDS011;18338;53.240;8.798;2022-08-20T09:14:29;4.63;;;1.70;;
31764;SDS011;18338;53.240;8.798;2022-08-20T09:17:00;4.50;;;1.30;;
31764;SDS011;18338;53.240;8.798;2022-08-20T09:19:38;4.82;;;1.40;;
31764;SDS011;18338;53.240;8.798;2022-08-20T09:22:12;5.82;;;1.48;;
31764;SDS011;18338;53.240;8.798;2022-08-20T09:24:41;5.28;;;1.45;;
31764;SDS011;18338;53.240;8.798;2022-08-20T09:27:09;4.13;;;1.20;;
31764;SDS011;18338;53.240;8.798;2022-08-20T09:29:36;2.38;;;1.33;;
31764;SDS011;18338;53.240;8.798;2022-08-20T09:32:08;5.00;;;1.00;;
31764;SDS011;18338;53.240;8.798;2022-08-20T09:34:42;2.38;;;0.63;;
31764;SDS011;18338;53.240;8.798;2022-08-20T09:37:14;3.33;;;1.15;;
31764;SDS011;18338;53.240;8.798;2022-08-20T09:39:41;5.75;;;1.55;;
31764;SDS011;18338;53.240;8.798;2022-08-20T09:42:09;2.85;;;0.90;;
31764;SDS011;18338;53.240;8.798;2022-08-20T09:44:41;4.35;;;1.20;;
31764;SDS011;18338;53.240;8.798;2022-08-20T09:47:10;3.35;;;1.30;;
31764;SDS011;18338;53.240;8.798;2022-08-20T09:49:39;2.15;;;0.85;;
31764;SDS011;18338;53.240;8.798;2022-08-20T09:52:08;2.70;;;0.93;;
31764;SDS011;18338;53.240;8.798;2022-08-20T09:54:39;4.53;;;1.20;;
31764;SDS011;18338;53.240;8.798;2022-08-20T09:57:11;2.80;;;0.70;;
31764;SDS011;18338;53.240;8.798;2022-08-20T09:59:40;2.45;;;1.08;;
31764;SDS011;18338;53.240;8.798;2022-08-20T10:02:07;2.15;;;0.77;;
31764;SDS011;18338;53.240;8.798;2022-08-20T10:04:34;3.42;;;0.88;;
31764;SDS011;18338;53.240;8.798;2022-08-20T10:07:05;3.75;;;1.20;;
31764;SDS011;18338;53.240;8.798;2022-08-20T10:09:33;3.67;;;1.00;;
31764;SDS011;18338;53.240;8.798;2022-08-20T10:12:04;2.58;;;0.65;;
31764;SDS011;18338;53.240;8.798;2022-08-20T10:14:31;3.35;;;1.50;;
31764;SDS011;18338;53.240;8.798;2022-08-20T10:16:59;2.80;;;1.08;;
31764;SDS011;18338;53.240;8.798;2022-08-20T10:19:31;3.22;;;1.23;;
31764;SDS011;18338;53.240;8.798;2022-08-20T10:22:04;2.78;;;1.00;;
31764;SDS011;18338;53.240;8.798;2022-08-20T10:24:31;3.97;;;1.13;;
31764;SDS011;18338;53.240;8.798;2022-08-20T10:26:59;3.10;;;0.90;;
31764;SDS011;18338;53.240;8.798;2022-08-20T10:29:31;2.95;;;1.15;;
31764;SDS011;18338;53.240;8.798;2022-08-20T10:32:15;1.92;;;1.00;;
31764;SDS011;18338;53.240;8.798;2022-08-20T10:37:52;3.85;;;1.15;;
31764;SDS011;18338;53.240;8.798;2022-08-20T10:40:19;3.70;;;0.70;;
31764;SDS011;18338;53.240;8.798;2022-08-20T10:42:46;3.47;;;1.10;;
31764;SDS011;18338;53.240;8.798;2022-08-20T10:45:13;2.92;;;1.00;;
31764;SDS011;18338;53.240;8.798;2022-08-20T10:47:41;3.97;;;0.80;;
31764;SDS011;18338;53.240;8.798;2022-08-20T10:50:11;4.68;;;1.30;;
31764;SDS011;18338;53.240;8.798;2022-08-20T10:52:39;3.17;;;1.10;;
31764;SDS011;18338;53.240;8.798;2022-08-20T10:55:06;3.10;;;1.42;;
31764;SDS011;18338;53.240;8.798;2022-08-20T10:57:33;2.33;;;1.13;;
31764;SDS011;18338;53.240;8.798;2022-08-20T10:59:59;4.32;;;1.33;;
31764;SDS011;18338;53.240;8.798;2022-08-20T11:02:27;3.75;;;1.15;;
31764;SDS011;18338;53.240;8.798;2022-08-20T11:04:54;3.28;;;1.05;;
31764;SDS011;18338;53.240;8.798;2022-08-20T11:07:29;3.25;;;1.25;;
31764;SDS011;18338;53.240;8.798;2022-08-20T11:10:17;2.08;;;1.00;;
31764;SDS011;18338;53.240;8.798;2022-08-20T11:12:45;2.78;;;1.05;;
31764;SDS011;18338;53.240;8.798;2022-08-20T11:15:12;2.15;;;1.15;;
31764;SDS011;18338;53.240;8.798;2022-08-20T11:17:39;2.22;;;1.00;;
31764;SDS011;18338;53.240;8.798;2022-08-20T11:20:07;3.95;;;1.10;;
31764;SDS011;18338;53.240;8.798;2022-08-20T11:22:36;2.60;;;1.10;;
31764;SDS011;18338;53.240;8.798;2022-08-20T11:25:04;3.55;;;1.40;;
31764;SDS011;18338;53.240;8.798;2022-08-20T11:27:32;3.25;;;0.88;;
31764;SDS011;18338;53.240;8.798;2022-08-20T11:30:06;3.53;;;1.00;;
31764;SDS011;18338;53.240;8.798;2022-08-20T11:32:35;3.45;;;1.13;;
31764;SDS011;18338;53.240;8.798;2022-08-20T11:35:02;3.95;;;1.33;;
31764;SDS011;18338;53.240;8.798;2022-08-20T11:37:50;4.38;;;0.98;;
31764;SDS011;18338;53.240;8.798;2022-08-20T11:40:18;4.15;;;1.15;;
31764;SDS011;18338;53.240;8.798;2022-08-20T11:42:45;3.10;;;1.13;;
31764;SDS011;18338;53.240;8.798;2022-08-20T11:45:35;3.58;;;0.88;;
31764;SDS011;18338;53.240;8.798;2022-08-20T11:48:03;3.17;;;1.35;;
31764;SDS011;18338;53.240;8.798;2022-08-20T11:50:30;2.40;;;1.02;;
31764;SDS011;18338;53.240;8.798;2022-08-20T11:52:57;2.70;;;1.02;;
31764;SDS011;18338;53.240;8.798;2022-08-20T11:55:26;3.92;;;0.90;;
31764;SDS011;18338;53.240;8.798;2022-08-20T11:57:56;2.05;;;1.10;;
31764;SDS011;18338;53.240;8.798;2022-08-20T12:00:25;3.50;;;1.20;;
31764;SDS011;18338;53.240;8.798;2022-08-20T12:02:59;3.20;;;0.88;;
31764;SDS011;18338;53.240;8.798;2022-08-20T12:05:26;2.10;;;0.88;;
31764;SDS011;18338;53.240;8.798;2022-08-20T12:07:54;3.22;;;1.17;;
31764;SDS011;18338;53.240;8.798;2022-08-20T12:10:21;2.58;;;1.10;;
31764;SDS011;18338;53.240;8.798;2022-08-20T12:12:49;2.47;;;1.08;;
31764;SDS011;18338;53.240;8.798;2022-08-20T12:15:16;2.78;;;1.20;;
31764;SDS011;18338;53.240;8.798;2022-08-20T12:17:43;4.55;;;1.08;;
31764;SDS011;18338;53.240;8.798;2022-08-20T12:20:11;4.07;;;1.30;;
31764;SDS011;18338;53.240;8.798;2022-08-20T12:22:39;3.83;;;1.08;;
31764;SDS011;18338;53.240;8.798;2022-08-20T12:25:06;4.07;;;0.95;;
31764;SDS011;18338;53.240;8.798;2022-08-20T12:27:34;3.95;;;0.95;;
31764;SDS011;18338;53.240;8.798;2022-08-20T12:30:04;3.05;;;0.90;;
31764;SDS011;18338;53.240;8.798;2022-08-20T12:32:33;1.48;;;0.75;;
31764;SDS011;18338;53.240;8.798;2022-08-20T12:35:00;4.18;;;0.90;;
31764;SDS011;18338;53.240;8.798;2022-08-20T12:37:28;4.22;;;1.10;;
31764;SDS011;18338;53.240;8.798;2022-08-20T12:39:57;3.03;;;1.08;;
31764;SDS011;18338;53.240;8.798;2022-08-20T12:42:26;2.70;;;0.70;;
31764;SDS011;18338;53.240;8.798;2022-08-20T12:44:54;4.60;;;1.00;;
31764;SDS011;18338;53.240;8.798;2022-08-20T12:47:22;3.15;;;1.10;;
31764;SDS011;18338;53.240;8.798;2022-08-20T12:49:55;4.50;;;0.90;;
31764;SDS011;18338;53.240;8.798;2022-08-20T12:52:26;2.47;;;1.13;;
31764;SDS011;18338;53.240;8.798;2022-08-20T12:54:55;4.97;;;0.98;;
31764;SDS011;18338;53.240;8.798;2022-08-20T12:59:58;4.13;;;1.15;;
31764;SDS011;18338;53.240;8.798;2022-08-20T13:02:30;2.90;;;0.93;;
31764;SDS011;18338;53.240;8.798;2022-08-20T13:04:57;3.53;;;1.25;;
31764;SDS011;18338;53.240;8.798;2022-08-20T13:07:30;2.75;;;1.20;;
31764;SDS011;18338;53.240;8.798;2022-08-20T13:09:57;3.20;;;1.00;;
31764;SDS011;18338;53.240;8.798;2022-08-20T13:12:24;6.97;;;1.40;;
31764;SDS011;18338;53.240;8.798;2022-08-20T13:14:51;8.18;;;1.50;;
31764;SDS011;18338;53.240;8.798;2022-08-20T13:17:18;2.90;;;0.80;;
31764;SDS011;18338;53.240;8.798;2022-08-20T13:19:57;2.28;;;0.80;;
31764;SDS011;18338;53.240;8.798;2022-08-20T13:22:24;4.15;;;0.80;;
31764;SDS011;18338;53.240;8.798;2022-08-20T13:24:51;4.13;;;1.10;;
31764;SDS011;18338;53.240;8.798;2022-08-20T13:27:18;2.22;;;0.82;;
31764;SDS011;18338;53.240;8.798;2022-08-20T13:29:49;3.08;;;0.90;;
31764;SDS011;18338;53.240;8.798;2022-08-20T13:32:23;2.00;;;0.60;;
31764;SDS011;18338;53.240;8.798;2022-08-20T13:34:50;3.05;;;0.95;;
31764;SDS011;18338;53.240;8.798;2022-08-20T13:37:18;2.30;;;0.80;;
31764;SDS011;18338;53.240;8.798;2022-08-20T13:39:51;4.32;;;0.95;;
31764;SDS011;18338;53.240;8.798;2022-08-20T13:42:18;3.80;;;1.35;;
31764;SDS011;18338;53.240;8.798;2022-08-20T13:44:46;2.90;;;0.95;;
31764;SDS011;18338;53.240;8.798;2022-08-20T13:47:17;2.70;;;0.80;;
31764;SDS011;18338;53.240;8.798;2022-08-20T13:49:46;3.05;;;0.98;;
31764;SDS011;18338;53.240;8.798;2022-08-20T13:52:14;4.90;;;1.08;;
31764;SDS011;18338;53.240;8.798;2022-08-20T13:54:42;1.75;;;0.90;;
31764;SDS011;18338;53.240;8.798;2022-08-20T13:57:10;4.05;;;1.20;;
31764;SDS011;18338;53.240;8.798;2022-08-20T13:59:40;4.20;;;1.08;;
31764;SDS011;18338;53.240;8.798;2022-08-20T14:02:09;4.43;;;1.10;;
31764;SDS011;18338;53.240;8.798;2022-08-20T14:04:36;2.08;;;0.88;;
31764;SDS011;18338;53.240;8.798;2022-08-20T14:07:10;1.10;;;0.57;;
31764;SDS011;18338;53.240;8.798;2022-08-20T14:09:53;2.65;;;0.90;;
31764;SDS011;18338;53.240;8.798;2022-08-20T14:12:22;2.38;;;0.82;;
31764;SDS011;18338;53.240;8.798;2022-08-20T14:14:50;2.38;;;0.88;;
31764;SDS011;18338;53.240;8.798;2022-08-20T14:17:19;3.58;;;1.10;;
31764;SDS011;18338;53.240;8.798;2022-08-20T14:19:47;2.70;;;1.15;;
31764;SDS011;18338;53.240;8.798;2022-08-20T14:22:14;2.95;;;1.23;;
31764;SDS011;18338;53.240;8.798;2022-08-20T14:24:46;2.17;;;0.80;;
31764;SDS011;18338;53.240;8.798;2022-08-20T14:27:14;4.05;;;0.80;;
31764;SDS011;18338;53.240;8.798;2022-08-20T14:29:42;2.70;;;0.90;;
31764;SDS011;18338;53.240;8.798;2022-08-20T14:32:10;2.63;;;1.05;;
31764;SDS011;18338;53.240;8.798;2022-08-20T14:34:38;1.92;;;0.70;;
31764;SDS011;18338;53.240;8.798;2022-08-20T14:37:09;2.60;;;1.00;;
31764;SDS011;18338;53.240;8.798;2022-08-20T14:39:37;2.58;;;0.60;;
31764;SDS011;18338;53.240;8.798;2022-08-20T14:42:04;2.97;;;0.88;;
31764;SDS011;18338;53.240;8.798;2022-08-20T14:44:31;4.25;;;1.15;;
31764;SDS011;18338;53.240;8.798;2022-08-20T14:47:08;2.88;;;1.17;;
31764;SDS011;18338;53.240;8.798;2022-08-20T14:49:36;2.67;;;0.88;;
31764;SDS011;18338;53.240;8.798;2022-08-20T14:52:03;1.65;;;0.65;;
31764;SDS011;18338;53.240;8.798;2022-08-20T14:54:31;4.13;;;0.90;;
31764;SDS011;18338;53.240;8.798;2022-08-20T14:56:58;1.98;;;0.93;;
31764;SDS011;18338;53.240;8.798;2022-08-20T14:59:27;4.35;;;1.00;;
31764;SDS011;18338;53.240;8.798;2022-08-20T15:01:53;2.15;;;1.02;;
31764;SDS011;18338;53.240;8.798;2022-08-20T15:04:21;2.35;;;0.80;;
31764;SDS011;18338;53.240;8.798;2022-08-20T15:06:50;3.13;;;1.10;;
31764;SDS011;18338;53.240;8.798;2022-08-20T15:09:19;3.30;;;0.80;;
31764;SDS011;18338;53.240;8.798;2022-08-20T15:11:46;2.47;;;1.00;;
31764;SDS011;18338;53.240;8.798;2022-08-20T15:14:13;3.42;;;1.00;;
31764;SDS011;18338;53.240;8.798;2022-08-20T15:16:43;2.75;;;1.23;;
31764;SDS011;18338;53.240;8.798;2022-08-20T15:19:10;3.17;;;0.90;;